Time;durP1;ratioP1;P1;durP2;ratioP2;P2;SDS_P1;SDS_P2;PMS_P1;PMS_P2;Temp;Humidity;BMP_temperature;BMP_pressure;BME280_temperature;BME280_humidity;BME280_pressure;Samples;Min_cycle;Max_cycle;Signal;HPM_P1;HPM_P2
2022/03/05 00:01:07;;;;;;;138.80;80.53;;;;;;;14.96;100.00;98736.34;4929467;29;20055;-65
2022/03/05 00:03:48;;;;;;;147.40;82.13;;;;;;;14.95;100.00;98735.50;4924099;29;20052;-65
2022/03/05 00:06:38;;;;;;;154.60;82.32;;;;;;;15.01;100.00;98735.22;4909928;29;20079;-66
2022/03/05 00:09:20;;;;;;;164.27;83.20;;;;;;;14.87;100.00;98741.03;4911894;29;20079;-64
2022/03/05 00:12:09;;;;;;;152.60;83.57;;;;;;;15.06;100.00;98753.16;4909398;29;20060;-65
2022/03/05 00:14:51;;;;;;;162.43;83.70;;;;;;;14.93;100.00;98752.88;4904787;29;20380;-66
2022/03/05 00:17:40;;;;;;;155.80;85.32;;;;;;;15.07;100.00;98744.47;4910124;29;20067;-66
2022/03/05 00:20:23;;;;;;;162.77;82.63;;;;;;;15.02;100.00;98746.44;4913680;29;20056;-66
2022/03/05 00:23:12;;;;;;;151.70;84.28;;;;;;;14.90;100.00;98746.09;4928374;29;20068;-66
2022/03/05 00:26:01;;;;;;;142.25;81.63;;;;;;;14.85;100.00;98744.63;4929812;29;20047;-66
2022/03/05 00:28:50;;;;;;;155.25;83.78;;;;;;;14.88;100.00;98755.69;4917682;29;20055;-66
2022/03/05 00:31:33;;;;;;;151.90;83.65;;;;;;;14.72;100.00;98754.72;4933888;29;20693;-67
2022/03/05 00:34:22;;;;;;;151.00;83.00;;;;;;;14.71;100.00;98755.63;4932378;28;20055;-67
2022/03/05 00:37:05;;;;;;;152.68;83.15;;;;;;;14.60;100.00;98754.44;4924502;28;20083;-67
2022/03/05 00:39:54;;;;;;;150.18;80.45;;;;;;;14.55;100.00;98746.88;4919034;28;20075;-67
2022/03/05 00:42:36;;;;;;;147.98;82.13;;;;;;;14.58;100.00;98751.91;4930307;29;20051;-67
2022/03/05 00:45:25;;;;;;;146.95;79.93;;;;;;;14.51;100.00;98758.28;4931913;29;20730;-66
2022/03/05 00:48:07;;;;;;;132.00;75.65;;;;;;;14.47;100.00;98761.91;4929229;29;20048;-67
2022/03/05 00:50:56;;;;;;;124.80;69.10;;;;;;;14.50;100.00;98774.75;4932243;29;20051;-67
2022/03/05 00:53:38;;;;;;;120.88;66.63;;;;;;;14.59;100.00;98763.97;4932103;29;20083;-67
2022/03/05 00:56:27;;;;;;;117.22;65.95;;;;;;;14.54;100.00;98781.47;4931508;29;20059;-66
2022/03/05 00:59:08;;;;;;;105.95;61.30;;;;;;;14.55;100.00;98786.59;4929039;29;20065;-67
2022/03/05 01:01:57;;;;;;;108.35;59.58;;;;;;;14.51;100.00;98797.19;4931520;29;20862;-67
2022/03/05 01:04:38;;;;;;;101.72;56.05;;;;;;;14.49;100.00;98799.00;4914154;29;20051;-67
2022/03/05 01:07:28;;;;;;;90.57;50.15;;;;;;;14.43;100.00;98804.44;4938446;29;20490;-66
2022/03/05 01:10:10;;;;;;;83.95;47.25;;;;;;;14.41;100.00;98812.28;4919128;29;20134;-66
2022/03/05 01:12:59;;;;;;;79.88;44.90;;;;;;;14.49;100.00;98807.59;4914361;29;20143;-67
2022/03/05 01:15:48;;;;;;;72.78;43.58;;;;;;;14.44;100.00;98811.31;4933942;28;20052;-67
2022/03/05 01:18:44;;;;;;;70.72;42.65;;;;;;;14.47;100.00;98809.41;4909081;29;20076;-67
2022/03/05 01:21:19;;;;;;;65.35;39.63;;;;;;;14.40;100.00;98823.56;4912014;29;20484;-67
2022/03/05 01:24:14;;;;;;;67.80;37.83;;;;;;;14.34;100.00;98817.78;4912354;29;20048;-67
2022/03/05 01:26:52;;;;;;;59.28;36.03;;;;;;;14.37;100.00;98823.66;4911160;29;20059;-67
2022/03/05 01:29:57;;;;;;;59.58;35.70;;;;;;;14.43;100.00;98828.63;4894950;29;20059;-67
2022/03/05 01:32:39;;;;;;;63.78;35.95;;;;;;;14.44;100.00;98832.91;4894624;29;20774;-67
2022/03/05 01:35:27;;;;;;;59.42;34.67;;;;;;;14.46;100.00;98833.66;4903394;29;22774;-67
2022/03/05 01:38:10;;;;;;;63.78;33.17;;;;;;;14.39;100.00;98840.00;4897779;29;20083;-66
2022/03/05 01:40:59;;;;;;;65.18;34.53;;;;;;;14.50;100.00;98836.97;4883487;29;20048;-67
2022/03/05 01:43:42;;;;;;;67.03;33.35;;;;;;;14.46;100.00;98845.78;4902632;29;20053;-67
2022/03/05 01:46:38;;;;;;;62.03;34.05;;;;;;;14.52;100.00;98845.53;4904906;29;20067;-67
2022/03/05 01:49:13;;;;;;;69.40;34.00;;;;;;;14.56;100.00;98852.25;4895917;29;20536;-67
2022/03/05 01:52:07;;;;;;;59.65;33.05;;;;;;;14.59;100.00;98859.91;4900763;29;20057;-67
2022/03/05 01:54:43;;;;;;;58.80;35.17;;;;;;;14.63;100.00;98861.44;4898933;29;20052;-67
2022/03/05 01:57:38;;;;;;;59.92;33.70;;;;;;;14.64;100.00;98864.88;4900078;29;20087;-67
2022/03/05 02:00:14;;;;;;;57.80;34.58;;;;;;;14.73;100.00;98865.31;4898952;29;20051;-66
2022/03/05 02:03:04;;;;;;;59.28;35.08;;;;;;;14.84;100.00;98863.13;4898881;29;20472;-67
2022/03/05 02:05:54;;;;;;;54.42;33.60;;;;;;;14.96;100.00;98868.66;4902101;29;20574;-67
2022/03/05 02:08:37;;;;;;;57.03;33.45;;;;;;;15.03;100.00;98870.91;4907052;29;20151;-67
2022/03/05 02:11:29;;;;;;;65.82;34.15;;;;;;;15.14;100.00;98867.81;4901035;29;20052;-66
2022/03/05 02:14:11;;;;;;;51.72;33.53;;;;;;;15.30;100.00;98874.84;4895675;29;20048;-66
2022/03/05 02:17:14;;;;;;;51.90;33.35;;;;;;;15.36;100.00;98878.91;4905980;28;20058;-66
2022/03/05 02:20:13;;;;;;;52.22;29.75;;;;;;;15.38;100.00;98890.06;4913487;28;20063;-67
2022/03/05 02:22:49;;;;;;;76.35;30.50;;;;;;;15.52;100.00;98889.41;4914626;28;20166;-67
2022/03/05 02:25:44;;;;;;;48.55;30.27;;;;;;;15.71;100.00;98892.03;4920640;28;20067;-68
2022/03/05 02:28:21;;;;;;;53.10;30.65;;;;;;;16.06;100.00;98889.41;4920134;28;20079;-67
2022/03/05 02:31:16;;;;;;;;;;;;;;;16.11;100.00;98914.34;4918063;28;20107;-67
2022/03/05 02:33:55;;;;;;;54.22;30.02;;;;;;;16.30;100.00;98908.16;4918125;29;19929;-68
2022/03/05 02:36:52;;;;;;;50.80;30.33;;;;;;;16.34;100.00;98909.69;4922364;28;20059;-67
2022/03/05 02:39:27;;;;;;;64.50;32.28;;;;;;;16.37;100.00;98926.88;4919467;28;20064;-67
2022/03/05 02:42:17;;;;;;;52.60;32.53;;;;;;;16.43;100.00;98930.06;4919733;28;20047;-67
2022/03/05 02:44:59;;;;;;;64.68;32.80;;;;;;;16.64;100.00;98924.72;4912521;29;20048;-67
2022/03/05 02:47:54;;;;;;;56.30;32.75;;;;;;;16.88;100.00;98928.66;4919295;28;20063;-67
2022/03/05 02:50:30;;;;;;;53.33;33.60;;;;;;;17.20;100.00;98930.44;4918884;28;20060;-67
2022/03/05 02:53:26;;;;;;;;;;;;;;;17.56;100.00;98929.34;4920467;28;20055;-67
2022/03/05 02:56:01;;;;;;;53.28;32.78;;;;;;;18.05;100.00;98927.53;4919635;28;19934;-67
2022/03/05 02:58:57;;;;;;;65.33;34.30;;;;;;;18.35;97.93;98936.22;4916667;29;20527;-68
2022/03/05 03:01:32;;;;;;;62.05;34.22;;;;;;;18.38;97.13;98940.41;4907911;29;20138;-67
2022/03/05 03:04:28;;;;;;;56.97;33.55;;;;;;;18.73;90.63;98936.63;4917506;28;20051;-67
2022/03/05 03:07:04;;;;;;;66.05;33.55;;;;;;;18.81;85.52;98949.22;4923633;28;20094;-67
2022/03/05 03:09:59;;;;;;;60.05;35.13;;;;;;;18.90;87.47;98943.47;4911418;29;20044;-68
2022/03/05 03:12:38;;;;;;;60.47;35.38;;;;;;;19.02;89.18;98952.31;4902683;29;20120;-67
2022/03/05 03:15:33;;;;;;;62.63;35.40;;;;;;;18.98;87.10;98948.22;4911647;29;20060;-66
2022/03/05 03:18:28;;;;;;;63.72;34.78;;;;;;;19.23;88.05;98950.19;4928134;29;20286;-67
2022/03/05 03:21:25;;;;;;;55.80;33.88;;;;;;;19.24;85.39;98946.63;4927715;29;20067;-67
2022/03/05 03:24:01;;;;;;;56.20;35.58;;;;;;;19.62;82.66;98949.53;4928189;29;20139;-67
2022/03/05 03:26:56;;;;;;;61.17;35.17;;;;;;;19.96;82.98;98948.22;4927815;29;20067;-67
2022/03/05 03:29:31;;;;;;;55.88;34.50;;;;;;;20.32;75.25;98958.94;4925094;29;20059;-67
2022/03/05 03:32:19;;;;;;;60.22;34.50;;;;;;;20.31;79.27;98966.91;4922882;29;20067;-66
2022/03/05 03:35:01;;;;;;;63.60;34.95;;;;;;;20.29;74.67;98980.06;4922799;29;20047;-67
2022/03/05 03:37:56;;;;;;;69.47;35.97;;;;;;;20.36;79.03;98978.75;4926791;29;20040;-68
2022/03/05 03:40:32;;;;;;;60.60;35.25;;;;;;;20.36;76.15;98980.53;4927186;29;20078;-67
2022/03/05 03:43:27;;;;;;;59.17;35.83;;;;;;;20.09;77.08;98988.38;4911885;29;20075;-67
2022/03/05 03:46:03;;;;;;;64.93;37.60;;;;;;;20.01;80.21;98982.78;4928155;29;20080;-68
2022/03/05 03:48:59;;;;;;;67.07;38.28;;;;;;;20.06;76.65;98992.03;4927870;29;20059;-67
2022/03/05 03:51:34;;;;;;;59.25;36.80;;;;;;;19.81;80.28;98992.72;4920831;29;20547;-67
2022/03/05 03:54:29;;;;;;;59.40;36.28;;;;;;;19.67;77.33;98997.97;4927392;29;20095;-67
2022/03/05 03:57:04;;;;;;;67.57;37.35;;;;;;;19.76;83.60;98999.19;4927763;29;20409;-67
2022/03/05 03:59:59;;;;;;;58.58;37.22;;;;;;;20.07;84.22;98996.31;4922634;29;20055;-67
2022/03/05 04:02:38;;;;;;;64.53;38.28;;;;;;;21.06;79.20;99012.56;4933885;29;20052;-67
2022/03/05 04:05:34;;;;;;;66.68;37.30;;;;;;;21.58;75.41;99010.66;4930404;29;20167;-67
2022/03/05 04:11:25;;;;;;;61.70;33.95;;;;;;;22.71;64.74;99020.91;4949553;29;20070;-67
2022/03/05 04:14:01;;;;;;;68.22;35.15;;;;;;;23.04;64.32;99015.81;4948534;29;20047;-67
2022/03/05 04:16:56;;;;;;;55.58;32.33;;;;;;;23.53;61.74;99014.72;4925862;28;20048;-68
2022/03/05 04:19:44;;;;;;;52.67;31.30;;;;;;;23.87;63.08;99011.09;4912077;29;20500;-68
2022/03/05 04:22:34;;;;;;;53.03;27.23;;;;;;;23.87;59.62;99011.09;4911136;29;20084;-68
2022/03/05 04:25:16;;;;;;;51.50;27.63;;;;;;;23.85;59.87;99012.19;4911111;29;20048;-68
2022/03/05 04:28:05;;;;;;;42.28;22.50;;;;;;;24.03;59.51;99011.53;4908103;29;20581;-68
2022/03/05 04:30:47;;;;;;;45.47;20.73;;;;;;;24.30;55.92;99018.22;4904876;29;20060;-68
2022/03/05 04:33:36;;;;;;;45.83;21.80;;;;;;;24.25;54.11;99020.41;4911916;29;20483;-68
2022/03/05 04:36:24;;;;;;;41.55;24.00;;;;;;;24.76;54.79;99017.91;4904149;29;20072;-67
2022/03/05 04:39:13;;;;;;;49.22;24.98;;;;;;;24.81;50.90;99022.81;4913380;29;20044;-67
2022/03/05 04:41:54;;;;;;;49.80;24.52;;;;;;;25.49;52.54;99023.13;4896254;29;20048;-67
2022/03/05 04:44:44;;;;;;;49.17;26.98;;;;;;;25.12;51.39;99032.50;4893537;29;20060;-67
2022/03/05 04:47:26;;;;;;;59.67;26.13;;;;;;;25.71;53.71;99029.22;4896579;29;20194;-67
2022/03/05 04:50:17;;;;;;;52.35;25.83;;;;;;;25.69;49.37;99037.31;4900022;29;20071;-67
2022/03/05 04:52:58;;;;;;;58.50;27.25;;;;;;;25.99;55.09;99033.78;4904703;29;20076;-67
2022/03/05 04:55:49;;;;;;;43.95;24.23;;;;;;;25.41;52.72;99033.50;4902118;29;20052;-67
2022/03/05 04:58:31;;;;;;;49.65;25.08;;;;;;;25.03;52.22;99036.75;4902335;29;20375;-67
2022/03/05 05:01:20;;;;;;;52.60;25.85;;;;;;;24.71;54.58;99036.75;4902640;29;20052;-67
2022/03/05 05:04:04;;;;;;;43.17;23.60;;;;;;;25.26;53.31;99039.25;4900715;29;20056;-68
2022/03/05 05:06:53;;;;;;;49.97;22.73;;;;;;;25.20;52.93;99040.63;4903864;29;20448;-68
2022/03/05 05:09:35;;;;;;;43.28;23.42;;;;;;;25.13;50.93;99050.00;4905537;29;20123;-68
2022/03/05 05:12:23;;;;;;;61.75;25.38;;;;;;;25.38;51.20;99048.78;4902537;29;20094;-68
2022/03/05 05:15:05;;;;;;;44.13;23.58;;;;;;;25.81;51.03;99053.88;4900380;29;20052;-68
2022/03/05 05:18:00;;;;;;;41.40;21.98;;;;;;;26.08;50.42;99059.41;4917651;28;20048;-67
2022/03/05 05:20:35;;;;;;;39.60;19.60;;;;;;;26.25;50.34;99066.72;4911627;29;20068;-68
2022/03/05 05:23:30;;;;;;;47.60;22.40;;;;;;;26.93;46.73;99074.72;4915289;29;20556;-68
2022/03/05 05:26:05;;;;;;;47.60;22.85;;;;;;;26.12;47.33;99071.34;4917449;29;20047;-68
2022/03/05 05:28:54;;;;;;;39.72;20.60;;;;;;;25.64;53.71;99065.88;4920215;29;20052;-67
2022/03/05 05:31:36;;;;;;;41.90;20.75;;;;;;;25.42;48.72;99068.66;4912266;29;20147;-67
2022/03/05 05:34:32;;;;;;;42.85;19.95;;;;;;;25.74;49.63;99073.84;4916872;29;20104;-68
2022/03/05 05:37:08;;;;;;;53.53;26.27;;;;;;;26.00;51.97;99071.59;4918543;29;20055;-68
2022/03/05 05:39:57;;;;;;;53.83;27.13;;;;;;;26.39;49.26;99073.41;4923472;29;20043;-67
2022/03/05 05:42:40;;;;;;;49.58;27.88;;;;;;;26.69;49.79;99069.81;4926828;29;20451;-68
2022/03/05 05:45:31;;;;;;;65.80;29.13;;;;;;;26.39;47.76;99075.22;4926092;29;20043;-69
2022/03/05 05:48:23;;;;;;;60.87;29.03;;;;;;;26.92;48.19;99071.25;4929698;29;20063;-69
2022/03/05 05:51:05;;;;;;;62.70;30.60;;;;;;;26.40;48.11;99079.53;4929908;29;20297;-68
2022/03/05 05:53:54;;;;;;;61.33;31.58;;;;;;;26.44;47.95;99075.63;4929470;29;20047;-68
2022/03/05 05:56:36;;;;;;;61.95;33.25;;;;;;;25.95;49.85;99068.50;4927581;29;20047;-71
2022/03/05 05:59:25;;;;;;;69.15;34.63;;;;;;;26.12;51.21;99074.00;4928758;29;20059;-68
2022/03/05 06:02:07;;;;;;;77.85;35.63;;;;;;;26.44;57.92;99063.25;4917375;29;20155;-67
2022/03/05 06:04:56;;;;;;;78.55;33.58;;;;;;;26.17;50.53;99071.81;4913402;29;20048;-67
2022/03/05 06:07:43;;;;;;;60.00;29.88;;;;;;;26.33;51.66;99075.75;4919194;29;20300;-67
2022/03/05 06:10:26;;;;;;;60.97;30.10;;;;;;;26.29;51.04;99072.53;4915665;29;20043;-67
2022/03/05 06:13:21;;;;;;;57.03;30.38;;;;;;;26.44;54.63;99076.47;4912651;29;20063;-70
2022/03/05 06:16:11;;;;;;;70.28;34.15;;;;;;;26.83;53.56;99074.69;4912836;29;20144;-67
2022/03/05 06:19:01;;;;;;;77.60;40.92;;;;;;;26.66;54.74;99070.06;4893002;29;20694;-66
2022/03/05 06:21:43;;;;;;;64.75;36.72;;;;;;;26.87;54.72;99067.31;4902851;29;20139;-68
2022/03/05 06:24:39;;;;;;;58.97;33.67;;;;;;;26.49;49.97;99074.25;4895652;29;20534;-67
2022/03/05 06:27:15;;;;;;;64.18;33.53;;;;;;;26.86;53.41;99058.56;4885964;29;20044;-69
2022/03/05 06:30:10;;;;;;;64.85;32.08;;;;;;;26.23;51.67;99057.22;4908764;29;20067;-69
2022/03/05 06:32:45;;;;;;;71.90;34.00;;;;;;;26.23;52.50;99058.03;4899814;29;20044;-70
2022/03/05 06:35:40;;;;;;;49.92;30.27;;;;;;;26.23;52.14;99058.03;4905213;29;20060;-69
2022/03/05 06:38:19;;;;;;;61.03;29.55;;;;;;;26.13;52.10;99058.97;4909521;29;20040;-70
2022/03/05 06:41:16;;;;;;;55.28;29.55;;;;;;;26.61;48.73;99059.09;4893316;29;20057;-69
2022/03/05 06:43:51;;;;;;;49.63;28.20;;;;;;;26.50;53.58;99052.13;4899123;29;20618;-70
2022/03/05 06:46:49;;;;;;;56.03;29.48;;;;;;;25.97;50.41;99051.56;4901636;29;20048;-67
2022/03/05 06:49:25;;;;;;;54.85;32.20;;;;;;;26.13;52.54;99051.88;4896084;29;20062;-67
2022/03/05 06:52:20;;;;;;;62.88;31.45;;;;;;;26.36;51.96;99044.59;4908882;29;20104;-67
2022/03/05 06:54:55;;;;;;;39.05;20.23;;;;;;;26.42;48.39;99037.94;4905994;29;20111;-67
2022/03/05 06:57:45;;;;;;;43.95;23.85;;;;;;;26.08;49.14;99038.25;4898622;29;20095;-68
2022/03/05 07:00:34;;;;;;;36.67;21.60;;;;;;;26.09;52.82;99034.66;4897696;29;20068;-67
2022/03/05 07:03:23;;;;;;;40.95;18.80;;;;;;;26.35;49.40;99034.16;4903265;29;20056;-67
2022/03/05 07:06:05;;;;;;;32.88;16.85;;;;;;;26.21;51.79;99025.63;4898721;29;20052;-68
2022/03/05 07:08:55;;;;;;;38.95;18.40;;;;;;;26.20;48.86;99033.69;4890228;29;20053;-68
2022/03/05 07:11:44;;;;;;;36.42;20.88;;;;;;;26.11;50.78;99031.84;4901089;29;20063;-69
2022/03/05 07:14:26;;;;;;;34.55;17.45;;;;;;;26.24;51.72;99017.44;4898134;29;20047;-69
2022/03/05 07:17:25;;;;;;;34.40;17.13;;;;;;;26.39;50.98;99014.44;4909211;29;20052;-69
2022/03/05 07:20:14;;;;;;;41.90;17.38;;;;;;;26.24;50.74;99012.16;4917489;29;20040;-68
2022/03/05 07:23:06;;;;;;;37.63;17.52;;;;;;;26.46;52.98;99002.34;4921709;28;20044;-69
2022/03/05 07:25:48;;;;;;;35.15;17.90;;;;;;;26.69;52.87;99001.09;4910828;28;20055;-69
2022/03/05 07:28:38;;;;;;;39.50;16.73;;;;;;;26.54;54.86;99003.31;4920165;28;20070;-71
2022/03/05 07:31:20;;;;;;;35.58;16.35;;;;;;;26.59;55.05;98992.31;4893108;29;20059;-69
2022/03/05 07:34:09;;;;;;;30.83;17.10;;;;;;;26.75;54.44;98989.94;4903772;28;20051;-67
2022/03/05 07:36:51;;;;;;;30.27;18.02;;;;;;;26.61;51.83;98982.44;4917587;28;20134;-66
2022/03/05 07:39:40;;;;;;;38.55;18.85;;;;;;;26.61;50.34;98971.88;4925901;29;20055;-65
2022/03/05 07:42:35;;;;;;;33.08;17.48;;;;;;;26.49;53.09;98973.00;4920100;29;20071;-67
2022/03/05 07:45:30;;;;;;;27.58;13.98;;;;;;;26.50;49.87;98974.66;4910975;28;20043;-65
2022/03/05 07:48:05;;;;;;;25.80;12.65;;;;;;;26.37;50.07;98966.16;4918630;28;20537;-68
2022/03/05 07:50:54;;;;;;;18.02;10.15;;;;;;;26.61;52.19;98961.28;4880405;29;20139;-71
2022/03/05 07:53:37;;;;;;;23.40;9.05;;;;;;;26.41;46.67;98972.84;4918955;28;20056;-62
2022/03/05 07:56:32;;;;;;;20.75;7.43;;;;;;;25.87;47.25;98953.00;4926587;29;20380;-68
2022/03/05 07:59:07;;;;;;;16.33;8.30;;;;;;;25.84;49.82;98955.94;4929123;28;20135;-68
2022/03/05 08:02:02;;;;;;;16.05;8.27;;;;;;;25.79;50.71;98952.84;4931544;29;20089;-67
2022/03/05 08:04:37;;;;;;;18.58;9.82;;;;;;;25.75;50.60;98946.19;4927925;29;20154;-69
2022/03/05 08:07:43;;;;;;;11.02;6.28;;;;;;;25.48;47.76;98950.22;4927823;29;20146;-67
2022/03/05 08:10:32;;;;;;;21.48;8.25;;;;;;;25.65;50.32;98934.75;4915812;28;20167;-69
2022/03/05 08:13:14;;;;;;;19.67;10.20;;;;;;;25.64;51.76;98933.06;4916619;28;20057;-68
2022/03/05 08:16:03;;;;;;;16.52;8.77;;;;;;;25.35;51.29;98927.69;4912199;29;20048;-68
2022/03/05 08:18:45;;;;;;;22.02;11.55;;;;;;;25.53;56.60;98926.94;4925346;29;20043;-68
2022/03/05 08:21:39;;;;;;;16.20;9.80;;;;;;;25.20;54.83;98923.72;4914401;28;20055;-68
2022/03/05 08:24:21;;;;;;;30.60;12.95;;;;;;;25.24;57.03;98911.94;4921960;29;20123;-68
2022/03/05 08:27:10;;;;;;;17.60;8.07;;;;;;;25.08;53.99;98918.53;4922536;28;20048;-65
2022/03/05 08:29:52;;;;;;;22.38;10.73;;;;;;;25.25;56.95;98911.81;4919730;29;20043;-67
2022/03/05 08:32:43;;;;;;;13.68;9.20;;;;;;;25.29;54.79;98909.75;4921126;29;20046;-67
2022/03/05 08:35:26;;;;;;;16.63;9.05;;;;;;;25.19;54.96;98904.44;4926727;29;20082;-69
2022/03/05 08:38:18;;;;;;;21.37;13.43;;;;;;;25.34;57.58;98900.47;4924513;29;20437;-68
2022/03/05 08:41:04;;;;;;;26.60;14.02;;;;;;;25.29;58.84;98897.41;4931022;28;20821;-67
2022/03/05 08:43:53;;;;;;;27.35;18.83;;;;;;;25.16;60.01;98888.88;4927956;28;20056;-68
2022/03/05 08:46:34;;;;;;;20.15;11.98;;;;;;;25.00;53.33;98891.16;4946370;28;20561;-68
2022/03/05 08:49:24;;;;;;;43.20;23.73;;;;;;;25.13;59.81;98879.44;4925225;28;20052;-68
2022/03/05 08:52:06;;;;;;;31.45;18.00;;;;;;;25.04;59.62;98876.75;4922570;28;20469;-67
2022/03/05 08:54:55;;;;;;;18.75;10.75;;;;;;;24.94;57.60;98887.25;4919922;29;20059;-68
2022/03/05 08:57:37;;;;;;;24.20;12.73;;;;;;;24.84;53.90;98875.78;4925797;28;20051;-69
2022/03/05 09:00:26;;;;;;;31.55;15.70;;;;;;;25.05;55.76;98873.16;4918551;28;20056;-68
2022/03/05 09:03:08;;;;;;;29.77;17.65;;;;;;;25.18;58.35;98871.13;4912047;29;20374;-68
2022/03/05 09:05:57;;;;;;;17.73;9.45;;;;;;;25.28;53.61;98874.63;4929248;29;20059;-66
2022/03/05 09:08:41;;;;;;;;;;;;;;;25.43;53.98;98860.09;4926613;29;20067;-69
2022/03/05 09:11:30;;;;;;;21.95;11.23;;;;;;;25.44;52.44;98864.41;4926056;29;19961;-69
2022/03/05 09:14:12;;;;;;;18.42;8.05;;;;;;;25.35;49.60;98854.66;4922230;29;20563;-68
2022/03/05 09:17:01;;;;;;;21.65;9.65;;;;;;;25.36;55.42;98856.34;4924827;29;20051;-69
2022/03/05 09:19:43;;;;;;;29.40;14.73;;;;;;;25.31;51.34;98855.03;4927399;29;20050;-68
2022/03/05 09:22:33;;;;;;;22.98;15.80;;;;;;;25.34;60.93;98842.44;4916502;29;20044;-68
2022/03/05 09:25:15;;;;;;;30.45;18.20;;;;;;;25.35;62.69;98833.56;4927381;29;20055;-69
2022/03/05 09:28:04;;;;;;;19.42;9.38;;;;;;;25.26;53.10;98839.63;4926925;29;20165;-71
2022/03/05 09:30:49;;;;;;;22.48;9.02;;;;;;;25.24;56.47;98833.66;4920133;29;20079;-70
2022/03/05 09:33:39;;;;;;;29.35;11.07;;;;;;;25.36;54.15;98824.69;4921423;29;20079;-70
2022/03/05 09:36:21;;;;;;;22.48;13.30;;;;;;;25.39;56.55;98832.31;4928078;29;20048;-70
2022/03/05 09:39:11;;;;;;;19.27;9.98;;;;;;;25.29;51.83;98828.81;4926520;29;20059;-70
2022/03/05 09:41:54;;;;;;;19.17;7.40;;;;;;;25.30;48.92;98833.09;4922131;29;20661;-70
2022/03/05 09:44:43;;;;;;;16.83;8.00;;;;;;;25.19;47.73;98838.50;4926880;29;20055;-72
2022/03/05 09:47:27;;;;;;;22.35;7.93;;;;;;;25.15;46.59;98832.66;4924491;29;20051;-70
2022/03/05 09:50:16;;;;;;;21.63;10.30;;;;;;;25.18;52.86;98821.00;4923728;29;20052;-72
2022/03/05 09:52:58;;;;;;;15.02;6.82;;;;;;;25.18;48.04;98815.75;4926925;29;20110;-72
2022/03/05 09:55:47;;;;;;;14.43;8.43;;;;;;;25.03;48.88;98801.25;4919643;29;20051;-71
2022/03/05 09:58:52;;;;;;;16.85;7.38;;;;;;;24.96;50.92;98797.50;4911869;29;20130;-67
2022/03/05 10:01:47;;;;;;;16.98;10.07;;;;;;;24.88;52.06;98794.66;4929626;29;20177;-67
2022/03/05 10:04:29;;;;;;;12.98;7.68;;;;;;;24.81;51.41;98791.72;4922969;29;20059;-66
2022/03/05 10:07:28;;;;;;;17.40;10.60;;;;;;;24.75;50.42;98787.78;4928631;29;20060;-64
2022/03/05 10:10:26;;;;;;;18.65;8.23;;;;;;;24.73;50.32;98788.91;4924439;29;20056;-65
2022/03/05 10:13:16;;;;;;;18.60;7.55;;;;;;;24.74;48.39;98794.03;4924864;29;20067;-67
2022/03/05 10:16:13;;;;;;;18.80;7.82;;;;;;;24.70;47.52;98786.53;4908108;29;20105;-69
2022/03/05 10:18:56;;;;;;;16.27;8.35;;;;;;;24.87;50.63;98790.34;4927039;29;20044;-67
2022/03/05 10:21:45;;;;;;;18.00;8.27;;;;;;;24.96;47.16;98794.84;4927853;29;20108;-66
2022/03/05 10:24:37;;;;;;;15.00;7.15;;;;;;;24.96;47.05;98795.69;4924533;29;20055;-67
2022/03/05 10:27:26;;;;;;;16.25;8.88;;;;;;;25.08;50.58;98783.22;4924185;29;20130;-67
2022/03/05 10:30:08;;;;;;;15.82;5.93;;;;;;;24.89;46.73;98778.72;4927390;29;20680;-67
2022/03/05 10:32:57;;;;;;;18.17;8.95;;;;;;;24.71;52.24;98775.88;4922059;29;20043;-66
2022/03/05 10:35:39;;;;;;;13.45;8.15;;;;;;;24.72;50.80;98780.19;4926270;29;20487;-66
2022/03/05 10:38:27;;;;;;;17.58;8.15;;;;;;;24.71;52.75;98770.59;4925958;29;20056;-66
2022/03/05 10:41:09;;;;;;;16.30;8.25;;;;;;;24.60;52.42;98772.47;4926602;29;20058;-66
2022/03/05 10:44:21;;;;;;;16.77;8.75;;;;;;;24.53;51.23;98774.81;4926695;29;20052;-66
2022/03/05 10:47:09;;;;;;;16.80;9.40;;;;;;;24.44;54.24;98770.31;4925488;29;20051;-67
2022/03/05 10:49:52;;;;;;;25.30;8.48;;;;;;;24.34;53.89;98772.91;4908757;29;21014;-65
2022/03/05 10:52:52;;;;;;;23.40;8.25;;;;;;;24.41;52.92;98767.97;4925552;29;20047;-66
2022/03/05 10:55:43;;;;;;;18.60;8.13;;;;;;;24.47;52.97;98775.34;4926785;29;20463;-65
2022/03/05 10:58:31;;;;;;;25.63;7.90;;;;;;;24.50;52.66;98776.88;4923624;29;20058;-66
2022/03/05 11:01:14;;;;;;;18.98;8.23;;;;;;;24.50;51.44;98774.25;4925668;29;20738;-64
2022/03/05 11:04:03;;;;;;;16.65;7.80;;;;;;;24.56;54.13;98766.66;4926208;29;20043;-66
2022/03/05 11:06:48;;;;;;;18.60;7.75;;;;;;;24.58;53.11;98764.72;4926211;29;20055;-63
2022/03/05 11:09:38;;;;;;;18.13;8.18;;;;;;;24.53;50.77;98763.44;4924775;29;20073;-64
2022/03/05 11:12:26;;;;;;;19.60;7.45;;;;;;;24.49;51.12;98770.78;4908448;29;20055;-64
2022/03/05 11:15:14;;;;;;;13.95;7.15;;;;;;;24.39;49.80;98764.63;4926927;29;20079;-63
2022/03/05 11:18:00;;;;;;;18.00;8.50;;;;;;;24.41;52.05;98767.97;4925329;29;20055;-63
2022/03/05 11:20:49;;;;;;;12.18;7.10;;;;;;;24.43;52.03;98766.00;4924346;29;20044;-64
2022/03/05 11:23:32;;;;;;;21.40;7.30;;;;;;;24.34;52.75;98753.66;4925540;29;20135;-63
2022/03/05 11:26:28;;;;;;;14.82;7.28;;;;;;;24.31;50.34;98762.66;4924372;29;20563;-64
2022/03/05 11:29:30;;;;;;;14.55;6.70;;;;;;;24.30;51.32;98752.22;4924739;29;20126;-67
2022/03/05 11:32:19;;;;;;;13.38;6.78;;;;;;;24.25;50.61;98757.06;4923950;29;20047;-64
2022/03/05 11:35:01;;;;;;;20.58;7.15;;;;;;;24.25;49.87;98765.81;4924840;29;20047;-67
2022/03/05 11:37:59;;;;;;;14.88;6.30;;;;;;;24.22;49.30;98767.84;4924393;29;20048;-67
2022/03/05 11:40:41;;;;;;;16.23;6.70;;;;;;;24.19;50.41;98763.63;4921295;29;20056;-67
2022/03/05 11:43:40;;;;;;;19.20;7.00;;;;;;;24.07;55.73;98751.53;4925920;29;20118;-65
2022/03/05 11:46:34;;;;;;;14.63;7.05;;;;;;;23.94;53.95;98754.34;4922712;29;20146;-68
2022/03/05 11:49:24;;;;;;;16.40;7.18;;;;;;;23.89;53.67;98750.41;4924836;29;20044;-68
2022/03/05 11:52:06;;;;;;;17.38;6.20;;;;;;;23.86;54.41;98745.44;4925488;28;20063;-68
2022/03/05 11:55:12;;;;;;;15.23;7.13;;;;;;;23.79;56.88;98744.25;4924980;29;20424;-68
2022/03/05 11:58:00;;;;;;;15.52;6.85;;;;;;;23.64;52.59;98743.72;4924850;29;20158;-69
2022/03/05 12:00:57;;;;;;;17.40;7.63;;;;;;;23.55;52.16;98744.47;4925015;29;20055;-69
2022/03/05 12:03:42;;;;;;;29.67;7.60;;;;;;;23.52;53.50;98742.13;4923904;29;20060;-69
2022/03/05 12:06:51;;;;;;;19.95;8.00;;;;;;;23.47;55.39;98738.97;4925888;29;20064;-69
2022/03/05 12:10:04;;;;;;;25.52;7.22;;;;;;;23.37;56.27;98746.81;4922660;29;20150;-66
2022/03/05 12:12:59;;;;;;;26.08;7.72;;;;;;;23.29;55.15;98741.34;4925223;29;20150;-66
2022/03/05 12:15:46;;;;;;;21.83;7.60;;;;;;;23.23;55.29;98739.19;4925241;29;20187;-65
2022/03/05 12:18:34;;;;;;;17.08;7.70;;;;;;;23.14;57.37;98738.16;4924582;29;20099;-67
2022/03/05 12:21:31;;;;;;;22.00;8.52;;;;;;;23.04;57.98;98731.13;4925988;29;20048;-66
2022/03/05 12:24:15;;;;;;;22.60;9.13;;;;;;;22.92;58.53;98732.09;4927432;29;20115;-64
2022/03/05 12:27:12;;;;;;;22.10;10.65;;;;;;;22.85;60.20;98732.56;4929328;29;20079;-66
2022/03/05 12:29:59;;;;;;;20.75;8.52;;;;;;;22.82;62.36;98724.97;4912860;29;20059;-65
2022/03/05 12:32:47;;;;;;;16.15;8.68;;;;;;;22.70;63.55;98717.16;4929758;29;20052;-65
2022/03/05 12:35:30;;;;;;;18.80;8.98;;;;;;;22.72;63.97;98715.25;4929343;29;20052;-66
2022/03/05 12:38:20;;;;;;;22.20;8.85;;;;;;;22.72;65.33;98710.00;4927211;29;20603;-65
2022/03/05 12:41:09;;;;;;;25.50;8.52;;;;;;;22.69;64.92;98707.59;4927116;29;20055;-65
2022/03/05 12:43:52;;;;;;;19.00;8.93;;;;;;;22.60;64.57;98709.16;4928007;29;20052;-65
2022/03/05 12:46:41;;;;;;;19.33;8.93;;;;;;;22.61;64.32;98699.50;4928098;29;20521;-65
2022/03/05 12:49:24;;;;;;;15.52;8.65;;;;;;;22.59;66.85;98694.38;4927915;29;20040;-65
2022/03/05 12:52:13;;;;;;;22.73;8.70;;;;;;;22.51;67.68;98694.97;4913506;29;20135;-66